createdAt,value
2018-10-21T00:02:24.102Z,11.71
2018-10-21T00:04:52.437Z,11.71
2018-10-21T00:07:21.440Z,11.70
2018-10-21T00:09:49.739Z,11.71
2018-10-21T00:12:18.171Z,11.75
2018-10-21T00:14:46.511Z,11.79
2018-10-21T00:17:14.808Z,11.81
2018-10-21T00:19:43.251Z,11.80
2018-10-21T00:22:11.815Z,11.82
2018-10-21T00:24:41.063Z,11.78
2018-10-21T00:27:09.494Z,11.73
2018-10-21T00:29:37.846Z,11.72
2018-10-21T00:32:06.165Z,11.76
2018-10-21T00:34:34.539Z,11.79
2018-10-21T00:37:02.837Z,11.84
2018-10-21T00:39:31.319Z,11.88
2018-10-21T00:41:59.611Z,11.87
2018-10-21T00:44:28.202Z,11.80
2018-10-21T00:46:56.487Z,11.80
2018-10-21T00:49:24.835Z,11.87
2018-10-21T00:51:53.323Z,11.89
2018-10-21T00:54:21.667Z,11.91
2018-10-21T00:56:49.969Z,11.96
2018-10-21T00:59:18.258Z,12.00
2018-10-21T01:01:46.630Z,12.03
2018-10-21T01:04:15.193Z,11.93
2018-10-21T01:06:43.514Z,11.82
2018-10-21T01:09:13.397Z,11.81
2018-10-21T01:11:42.674Z,11.75
2018-10-21T01:14:11.518Z,11.75
2018-10-21T01:16:39.834Z,11.75
2018-10-21T01:19:08.243Z,11.74
2018-10-21T01:21:37.096Z,11.75
2018-10-21T01:24:06.162Z,11.78
2018-10-21T01:26:34.511Z,11.81
2018-10-21T01:29:03.026Z,11.86
2018-10-21T01:31:31.327Z,11.93
2018-10-21T01:33:59.734Z,11.93
2018-10-21T01:36:28.325Z,11.89
2018-10-21T01:38:56.544Z,11.82
2018-10-21T01:41:24.990Z,11.81
2018-10-21T01:43:53.398Z,11.81
2018-10-21T01:46:21.694Z,11.80
2018-10-21T01:48:49.978Z,11.82
2018-10-21T01:51:18.380Z,11.81
2018-10-21T01:53:46.614Z,11.77
2018-10-21T01:56:14.938Z,11.79
2018-10-21T01:58:43.741Z,11.82
2018-10-21T02:01:12.027Z,11.82
2018-10-21T02:03:40.495Z,11.90
2018-10-21T02:06:08.906Z,11.94
2018-10-21T02:08:37.177Z,11.94
2018-10-21T02:11:05.738Z,11.96
2018-10-21T02:13:34.337Z,12.01
2018-10-21T02:16:02.777Z,12.06
2018-10-21T02:18:31.081Z,12.08
2018-10-21T02:20:59.515Z,12.08
2018-10-21T02:23:27.897Z,12.07
2018-10-21T02:25:56.298Z,12.08
2018-10-21T02:28:24.717Z,12.09
2018-10-21T02:30:53.166Z,12.11
2018-10-21T02:33:21.586Z,12.12
2018-10-21T02:35:49.787Z,12.12
2018-10-21T02:38:18.177Z,12.11
2018-10-21T02:41:32.812Z,12.09
2018-10-21T02:44:01.386Z,12.08
2018-10-21T02:46:30.411Z,12.05
2018-10-21T02:48:59.650Z,12.05
2018-10-21T02:51:28.085Z,12.01
2018-10-21T02:53:56.625Z,11.96
2018-10-21T02:56:25.129Z,11.92
2018-10-21T02:58:53.500Z,11.91
2018-10-21T03:01:21.909Z,11.90
2018-10-21T03:03:50.501Z,11.89
2018-10-21T03:06:18.906Z,11.86
2018-10-21T03:08:47.315Z,11.90
2018-10-21T03:11:15.650Z,11.94
2018-10-21T03:13:44.083Z,11.97
2018-10-21T03:16:12.417Z,12.00
2018-10-21T03:18:40.737Z,12.03
2018-10-21T03:21:09.104Z,12.04
2018-10-21T03:23:37.346Z,11.96
2018-10-21T03:26:05.770Z,11.93
2018-10-21T03:28:34.585Z,11.90
2018-10-21T03:31:03.094Z,11.86
2018-10-21T03:33:32.214Z,11.80
2018-10-21T03:36:00.482Z,11.76
2018-10-21T03:38:28.830Z,11.77
2018-10-21T03:40:57.438Z,11.77
2018-10-21T03:43:25.837Z,11.78
2018-10-21T03:45:54.239Z,11.82
2018-10-21T03:48:22.549Z,11.76
2018-10-21T03:50:50.946Z,11.68
2018-10-21T03:53:19.278Z,11.57
2018-10-21T03:55:47.830Z,11.47
2018-10-21T03:58:16.150Z,11.49
2018-10-21T04:00:44.452Z,11.52
2018-10-21T04:03:12.961Z,11.51
2018-10-21T04:05:41.313Z,11.50
2018-10-21T04:08:09.623Z,11.48
2018-10-21T04:10:37.998Z,11.45
2018-10-21T04:13:06.361Z,11.45
2018-10-21T04:15:34.765Z,11.47
2018-10-21T04:18:03.061Z,11.51
2018-10-21T04:20:31.381Z,11.59
2018-10-21T04:23:01.688Z,11.64
2018-10-21T04:25:31.422Z,11.69
2018-10-21T04:28:00.652Z,11.71
2018-10-21T04:30:30.190Z,11.75
2018-10-21T04:33:14.270Z,11.77
2018-10-21T04:35:42.922Z,11.78
2018-10-21T04:38:29.868Z,11.79
2018-10-21T04:40:58.139Z,11.75
2018-10-21T04:43:26.454Z,11.73
2018-10-21T04:45:54.761Z,11.75
2018-10-21T04:48:23.159Z,11.76
2018-10-21T04:50:51.457Z,11.75
2018-10-21T04:53:19.842Z,11.76
2018-10-21T04:55:48.201Z,11.78
2018-10-21T04:58:16.666Z,11.75
2018-10-21T05:00:44.967Z,11.71
2018-10-21T05:03:13.238Z,11.70
2018-10-21T05:05:41.636Z,11.67
2018-10-21T05:08:09.950Z,11.61
2018-10-21T05:10:39.382Z,11.54
2018-10-21T05:13:08.669Z,11.47
2018-10-21T05:15:38.393Z,11.42
2018-10-21T05:18:07.065Z,11.35
2018-10-21T05:20:35.380Z,11.30
2018-10-21T05:23:03.810Z,11.33
2018-10-21T05:25:32.146Z,11.35
2018-10-21T05:28:00.462Z,11.37
2018-10-21T05:30:28.783Z,11.36
2018-10-21T05:32:57.134Z,11.36
2018-10-21T05:35:25.420Z,11.36
2018-10-21T05:37:54.114Z,11.32
2018-10-21T05:40:23.171Z,11.33
2018-10-21T05:42:51.880Z,11.34
2018-10-21T05:45:20.299Z,11.36
2018-10-21T05:47:48.628Z,11.40
2018-10-21T05:50:17.408Z,11.43
2018-10-21T05:52:45.922Z,11.44
2018-10-21T05:55:14.853Z,11.40
2018-10-21T05:57:43.183Z,11.34
2018-10-21T06:00:14.207Z,11.31
2018-10-21T06:02:42.523Z,11.33
2018-10-21T06:05:39.216Z,11.37
2018-10-21T06:08:08.018Z,11.39
2018-10-21T06:10:36.393Z,11.40
2018-10-21T06:13:05.115Z,11.39
2018-10-21T06:15:33.499Z,11.39
2018-10-21T06:18:02.537Z,11.42
2018-10-21T06:21:03.790Z,11.45
2018-10-21T06:23:32.343Z,11.42
2018-10-21T06:26:00.668Z,11.43
2018-10-21T06:28:29.095Z,11.45
2018-10-21T06:30:57.376Z,11.46
2018-10-21T06:33:25.773Z,11.45
2018-10-21T06:35:54.131Z,11.43
2018-10-21T06:38:22.500Z,11.42
2018-10-21T06:40:50.791Z,11.42
2018-10-21T06:43:19.170Z,11.47
2018-10-21T06:45:47.480Z,11.48
2018-10-21T06:48:15.785Z,11.46
2018-10-21T06:50:44.071Z,11.45
2018-10-21T06:53:12.355Z,11.43
2018-10-21T06:55:40.658Z,11.43
2018-10-21T06:58:09.038Z,11.40
2018-10-21T07:00:37.398Z,11.41
2018-10-21T07:03:05.870Z,11.40
2018-10-21T07:06:42.866Z,11.43
2018-10-21T07:09:11.366Z,11.46
2018-10-21T07:11:39.742Z,11.48
2018-10-21T07:14:08.086Z,11.52
2018-10-21T07:16:36.602Z,11.54
2018-10-21T07:19:04.976Z,11.53
2018-10-21T07:21:33.378Z,11.56
2018-10-21T07:24:01.668Z,11.61
2018-10-21T07:26:30.074Z,11.62
2018-10-21T07:28:58.766Z,11.67
2018-10-21T07:31:27.138Z,11.69
2018-10-21T07:33:55.600Z,11.72
2018-10-21T07:36:23.964Z,11.75
2018-10-21T07:38:52.464Z,11.77
2018-10-21T07:41:20.754Z,11.81
2018-10-21T07:43:49.186Z,11.84
2018-10-21T07:46:17.567Z,11.83
2018-10-21T07:48:45.894Z,11.89
2018-10-21T07:51:14.314Z,11.94
2018-10-21T07:53:42.738Z,11.99
2018-10-21T07:56:11.022Z,12.03
2018-10-21T07:58:39.450Z,12.08
2018-10-21T08:01:08.792Z,12.11
2018-10-21T08:03:37.068Z,12.16
2018-10-21T08:06:27.100Z,12.20
2018-10-21T08:08:55.592Z,12.21
2018-10-21T08:11:24.046Z,12.18
2018-10-21T08:13:52.446Z,12.17
2018-10-21T08:16:20.918Z,12.16
2018-10-21T08:18:49.844Z,12.16
2018-10-21T08:21:18.470Z,12.18
2018-10-21T08:23:46.698Z,12.19
2018-10-21T08:26:15.030Z,12.19
2018-10-21T08:28:43.576Z,12.19
2018-10-21T08:31:12.014Z,12.23
2018-10-21T08:33:40.428Z,12.22
2018-10-21T08:36:09.528Z,12.21
2018-10-21T08:38:37.746Z,12.25
2018-10-21T08:41:06.114Z,12.29
2018-10-21T08:43:34.553Z,12.35
2018-10-21T08:46:02.885Z,12.38
2018-10-21T08:48:31.273Z,12.39
2018-10-21T08:50:59.621Z,12.43
2018-10-21T08:53:27.993Z,12.44
2018-10-21T08:55:56.444Z,12.43
2018-10-21T08:58:24.776Z,12.36
2018-10-21T09:00:53.076Z,12.35
2018-10-21T09:03:21.429Z,12.38
2018-10-21T09:05:49.856Z,12.45
2018-10-21T09:08:18.264Z,12.51
2018-10-21T09:10:46.866Z,12.59
2018-10-21T09:13:15.350Z,12.76
2018-10-21T09:15:43.611Z,12.94
2018-10-21T09:18:12.003Z,13.07
2018-10-21T09:20:40.314Z,13.14
2018-10-21T09:23:08.608Z,13.18
2018-10-21T09:25:36.916Z,13.26
2018-10-21T09:28:05.721Z,13.31
2018-10-21T09:30:34.067Z,13.36
2018-10-21T09:33:02.575Z,13.43
2018-10-21T09:35:51.711Z,13.46
2018-10-21T09:38:20.213Z,13.45
2018-10-21T09:40:48.890Z,13.40
2018-10-21T09:43:17.350Z,13.37
2018-10-21T09:45:45.661Z,13.41
2018-10-21T09:48:14.042Z,13.47
2018-10-21T09:50:42.405Z,13.60
2018-10-21T09:53:10.867Z,13.70
2018-10-21T09:55:39.278Z,13.79
2018-10-21T09:58:07.896Z,13.89
2018-10-21T10:00:41.436Z,13.93
2018-10-21T10:03:09.952Z,14.01
2018-10-21T10:05:38.427Z,14.09
2018-10-21T10:08:06.855Z,14.12
2018-10-21T10:10:35.188Z,14.19
2018-10-21T10:13:03.650Z,14.21
2018-10-21T10:15:31.906Z,14.22
2018-10-21T10:18:00.348Z,14.23
2018-10-21T10:20:28.763Z,14.35
2018-10-21T10:22:57.051Z,14.49
2018-10-21T10:25:25.579Z,14.61
2018-10-21T10:27:54.107Z,14.70
2018-10-21T10:30:22.638Z,14.73
2018-10-21T10:32:51.108Z,14.81
2018-10-21T10:35:19.466Z,14.90
2018-10-21T10:37:47.860Z,15.02
2018-10-21T10:40:16.288Z,15.10
2018-10-21T10:42:44.985Z,15.19
2018-10-21T10:45:13.298Z,15.29
2018-10-21T10:47:41.733Z,15.40
2018-10-21T10:50:11.194Z,15.50
2018-10-21T10:52:39.991Z,15.64
2018-10-21T10:55:08.900Z,15.70
2018-10-21T10:57:37.344Z,15.75
2018-10-21T11:00:07.879Z,15.88
2018-10-21T11:02:36.202Z,16.02
2018-10-21T11:05:05.167Z,16.11
2018-10-21T11:07:33.523Z,16.07
2018-10-21T11:10:01.936Z,16.11
2018-10-21T11:12:30.262Z,16.24
2018-10-21T11:14:58.661Z,16.36
2018-10-21T11:17:27.058Z,16.42
2018-10-21T11:19:55.374Z,16.51
2018-10-21T11:22:23.757Z,16.57
2018-10-21T11:24:52.082Z,16.64
2018-10-21T11:27:20.369Z,16.63
2018-10-21T11:29:49.251Z,16.62
2018-10-21T11:32:17.703Z,16.63
2018-10-21T11:34:46.091Z,16.64
2018-10-21T11:37:14.632Z,16.71
2018-10-21T11:39:42.978Z,16.87
2018-10-21T11:42:11.394Z,16.99
2018-10-21T11:44:39.720Z,17.06
2018-10-21T11:47:08.212Z,17.13
2018-10-21T11:49:36.489Z,17.19
2018-10-21T11:52:05.036Z,17.21
2018-10-21T11:54:33.417Z,17.23
2018-10-21T11:57:01.813Z,17.28
2018-10-21T11:59:30.166Z,17.33
2018-10-21T12:01:58.714Z,17.33
2018-10-21T12:04:27.047Z,17.40
2018-10-21T12:06:55.406Z,17.51
2018-10-21T12:09:23.813Z,17.63
2018-10-21T12:11:52.163Z,17.69
2018-10-21T12:14:20.541Z,17.77
2018-10-21T12:16:49.249Z,17.92
2018-10-21T12:19:17.672Z,18.02
2018-10-21T12:21:46.083Z,18.09
2018-10-21T12:24:14.388Z,18.15
2018-10-21T12:26:46.199Z,18.03
2018-10-21T12:29:14.568Z,17.77
2018-10-21T12:31:42.942Z,17.54
2018-10-21T12:34:11.437Z,17.34
2018-10-21T12:36:39.983Z,17.19
2018-10-21T12:39:10.086Z,17.03
2018-10-21T12:41:38.850Z,16.91
2018-10-21T12:44:07.279Z,16.81
2018-10-21T12:46:35.642Z,16.79
2018-10-21T12:49:04.057Z,16.79
2018-10-21T12:51:32.603Z,16.77
2018-10-21T12:54:01.070Z,16.71
2018-10-21T12:56:29.419Z,16.74
2018-10-21T12:58:58.011Z,16.81
2018-10-21T13:01:26.482Z,16.95
2018-10-21T13:03:54.802Z,17.09
2018-10-21T13:06:23.203Z,17.20
2018-10-21T13:08:51.533Z,17.27
2018-10-21T13:11:20.015Z,17.33
2018-10-21T13:13:48.442Z,17.40
2018-10-21T13:16:17.084Z,17.46
2018-10-21T13:18:45.554Z,17.50
2018-10-21T13:21:13.973Z,17.50
2018-10-21T13:23:43.989Z,17.47
2018-10-21T13:26:12.266Z,17.49
2018-10-21T13:28:41.029Z,17.57
2018-10-21T13:31:09.464Z,17.61
2018-10-21T13:33:37.846Z,17.64
2018-10-21T13:36:06.622Z,17.65
2018-10-21T13:38:35.043Z,17.67
2018-10-21T13:41:03.410Z,17.65
2018-10-21T13:43:32.111Z,17.66
2018-10-21T13:46:00.487Z,17.71
2018-10-21T13:48:28.862Z,17.76
2018-10-21T13:50:57.462Z,17.73
2018-10-21T13:53:25.842Z,17.71
2018-10-21T13:55:54.131Z,17.73
2018-10-21T13:58:22.503Z,17.74
2018-10-21T14:00:50.902Z,17.74
2018-10-21T14:03:19.142Z,17.77
2018-10-21T14:05:47.450Z,17.83
2018-10-21T14:08:15.773Z,17.86
2018-10-21T14:10:44.283Z,17.87
2018-10-21T14:13:12.762Z,17.87
2018-10-21T14:15:41.040Z,17.83
2018-10-21T14:18:09.609Z,17.78
2018-10-21T14:20:38.115Z,17.80
2018-10-21T14:23:06.653Z,17.87
2018-10-21T14:25:35.147Z,17.88
2018-10-21T14:28:03.474Z,17.87
2018-10-21T14:30:31.902Z,17.87
2018-10-21T14:33:00.041Z,17.90
2018-10-21T14:35:28.378Z,17.95
2018-10-21T14:37:56.794Z,17.93
2018-10-21T14:40:25.098Z,17.90
2018-10-21T14:42:53.447Z,17.78
2018-10-21T14:45:21.780Z,17.63
2018-10-21T14:47:50.171Z,17.50
2018-10-21T14:50:18.654Z,17.37
2018-10-21T14:52:47.153Z,17.25
2018-10-21T14:55:15.557Z,17.15
2018-10-21T14:57:43.891Z,17.07
2018-10-21T15:00:13.677Z,16.99
2018-10-21T15:02:42.763Z,16.88
2018-10-21T15:05:12.859Z,16.81
2018-10-21T15:07:42.403Z,16.72
2018-10-21T15:10:11.244Z,16.65
2018-10-21T15:12:39.602Z,16.55
2018-10-21T15:15:08.930Z,16.47
2018-10-21T15:17:37.419Z,16.45
2018-10-21T15:20:06.590Z,16.41
2018-10-21T15:22:35.011Z,16.34
2018-10-21T15:25:03.548Z,16.31
2018-10-21T15:27:31.918Z,16.24
2018-10-21T15:30:00.334Z,16.15
2018-10-21T15:32:28.635Z,16.10
2018-10-21T15:34:57.064Z,16.06
2018-10-21T15:37:25.399Z,16.01
2018-10-21T15:39:53.814Z,15.95
2018-10-21T15:42:22.136Z,15.89
2018-10-21T15:44:50.537Z,15.83
2018-10-21T15:47:18.896Z,15.76
2018-10-21T15:49:47.287Z,15.64
2018-10-21T15:52:15.868Z,15.59
2018-10-21T15:54:44.135Z,15.55
2018-10-21T15:57:12.543Z,15.48
2018-10-21T15:59:41.196Z,15.42
2018-10-21T16:02:14.029Z,15.35
2018-10-21T16:04:42.303Z,15.26
2018-10-21T16:07:10.644Z,15.18
2018-10-21T16:09:38.942Z,15.09
2018-10-21T16:12:07.262Z,14.98
2018-10-21T16:14:36.761Z,14.87
2018-10-21T16:17:05.668Z,14.77
2018-10-21T16:19:34.052Z,14.73
2018-10-21T16:22:02.749Z,14.68
2018-10-21T16:24:31.154Z,14.62
2018-10-21T16:26:59.627Z,14.59
2018-10-21T16:29:27.979Z,14.50
2018-10-21T16:31:56.578Z,14.45
2018-10-21T16:34:24.973Z,14.36
2018-10-21T16:36:53.272Z,14.31
2018-10-21T16:39:21.602Z,14.25
2018-10-21T16:41:50.075Z,14.16
2018-10-21T16:44:18.379Z,14.04
2018-10-21T16:46:46.752Z,13.95
2018-10-21T16:49:15.149Z,13.87
2018-10-21T16:51:43.517Z,13.81
2018-10-21T16:54:11.937Z,13.78
2018-10-21T16:56:42.197Z,13.75
2018-10-21T16:59:10.693Z,13.68
2018-10-21T17:01:38.963Z,13.40
2018-10-21T17:04:07.443Z,13.10
2018-10-21T17:06:35.749Z,12.92
2018-10-21T17:09:04.826Z,12.74
2018-10-21T17:11:33.119Z,12.64
2018-10-21T17:14:02.413Z,12.59
2018-10-21T17:16:30.887Z,12.58
2018-10-21T17:18:59.292Z,12.52
2018-10-21T17:21:27.617Z,12.53
2018-10-21T17:23:56.035Z,12.56
2018-10-21T17:26:24.598Z,12.58
2018-10-21T17:28:53.002Z,12.60
2018-10-21T17:31:21.340Z,12.62
2018-10-21T17:33:49.765Z,12.56
2018-10-21T17:36:18.109Z,12.55
2018-10-21T17:38:46.470Z,12.39
2018-10-21T17:41:15.977Z,12.24
2018-10-21T17:43:44.370Z,12.14
2018-10-21T17:46:12.917Z,12.14
2018-10-21T17:48:41.224Z,12.15
2018-10-21T17:51:10.166Z,12.15
2018-10-21T17:53:38.514Z,12.17
2018-10-21T17:56:07.034Z,12.14
2018-10-21T17:58:35.421Z,12.08
2018-10-21T18:01:03.811Z,12.04
2018-10-21T18:03:32.151Z,11.98
2018-10-21T18:06:01.006Z,11.96
2018-10-21T18:08:29.486Z,11.96
2018-10-21T18:10:57.847Z,11.99
2018-10-21T18:13:26.135Z,11.98
2018-10-21T18:15:54.634Z,11.86
2018-10-21T18:18:23.214Z,11.76
2018-10-21T18:20:52.203Z,11.78
2018-10-21T18:23:20.854Z,11.76
2018-10-21T18:25:49.295Z,11.75
2018-10-21T18:28:17.633Z,11.72
2018-10-21T18:30:46.009Z,11.69
2018-10-21T18:33:14.610Z,11.62
2018-10-21T18:35:47.669Z,11.54
2018-10-21T18:38:16.193Z,11.41
2018-10-21T18:40:46.347Z,11.26
2018-10-21T18:43:15.028Z,11.26
2018-10-21T18:45:43.385Z,11.21
2018-10-21T18:48:11.743Z,11.14
2018-10-21T18:50:40.230Z,11.00
2018-10-21T18:53:08.626Z,10.89
2018-10-21T18:55:37.102Z,10.85
2018-10-21T18:58:05.744Z,10.81
2018-10-21T19:00:34.249Z,10.80
2018-10-21T19:03:02.632Z,10.70
2018-10-21T19:05:30.946Z,10.48
2018-10-21T19:07:59.394Z,10.30
2018-10-21T19:10:27.766Z,10.22
2018-10-21T19:13:00.051Z,10.19
2018-10-21T19:15:25.254Z,10.23
2018-10-21T19:17:53.600Z,10.29
2018-10-21T19:20:22.106Z,10.29
2018-10-21T19:22:50.606Z,10.15
2018-10-21T19:25:18.925Z,9.88
2018-10-21T19:27:47.552Z,9.62
2018-10-21T19:30:16.428Z,9.45
2018-10-21T19:32:44.994Z,9.34
2018-10-21T19:35:14.162Z,9.26
2018-10-21T19:37:42.509Z,9.31
2018-10-21T19:40:12.443Z,9.34
2018-10-21T19:42:41.746Z,9.37
2018-10-21T19:45:11.158Z,9.39
2018-10-21T19:47:39.697Z,9.33
2018-10-21T19:50:09.902Z,9.33
2018-10-21T19:52:38.758Z,9.43
2018-10-21T19:55:07.413Z,9.47
2018-10-21T19:57:36.143Z,9.54
2018-10-21T20:00:06.110Z,9.55
2018-10-21T20:02:35.843Z,9.45
2018-10-21T20:05:04.304Z,9.28
2018-10-21T20:07:32.687Z,9.12
2018-10-21T20:10:01.286Z,9.01
2018-10-21T20:12:29.655Z,8.94
2018-10-21T20:14:58.071Z,8.92
2018-10-21T20:17:26.573Z,9.01
2018-10-21T20:19:55.206Z,9.14
2018-10-21T20:22:23.666Z,9.19
2018-10-21T20:24:52.172Z,9.28
2018-10-21T20:27:20.527Z,9.21
2018-10-21T20:29:52.114Z,9.08
2018-10-21T20:32:21.363Z,9.03
2018-10-21T20:34:50.451Z,8.93
2018-10-21T20:37:19.031Z,8.87
2018-10-21T20:39:53.363Z,8.75
2018-10-21T20:42:26.676Z,8.67
2018-10-21T20:44:55.055Z,8.71
2018-10-21T20:47:23.395Z,8.81
2018-10-21T20:49:51.775Z,8.82
2018-10-21T20:52:20.135Z,8.87
2018-10-21T20:54:49.649Z,8.98
2018-10-21T20:57:18.146Z,9.05
2018-10-21T20:59:47.562Z,9.08
2018-10-21T21:02:16.564Z,9.06
2018-10-21T21:04:44.986Z,9.01
2018-10-21T21:07:14.218Z,8.98
2018-10-21T21:09:42.682Z,8.87
2018-10-21T21:12:14.641Z,8.66
2018-10-21T21:14:42.946Z,8.42
2018-10-21T21:17:12.962Z,8.34
2018-10-21T21:19:41.970Z,8.25
2018-10-21T21:22:10.411Z,8.25
2018-10-21T21:24:38.710Z,8.21
2018-10-21T21:27:07.283Z,8.13
2018-10-21T21:29:35.857Z,8.20
2018-10-21T21:32:04.660Z,8.21
2018-10-21T21:34:33.143Z,8.06
2018-10-21T21:37:01.499Z,7.83
2018-10-21T21:39:29.878Z,7.72
2018-10-21T21:41:58.215Z,7.80
2018-10-21T21:44:26.534Z,7.94
2018-10-21T21:46:54.921Z,8.02
2018-10-21T21:49:23.299Z,7.99
2018-10-21T21:51:51.670Z,7.97
2018-10-21T21:54:19.936Z,7.99
2018-10-21T21:56:48.259Z,8.02
2018-10-21T21:59:16.674Z,8.05
2018-10-21T22:01:45.064Z,8.05
2018-10-21T22:04:13.424Z,8.04
2018-10-21T22:06:41.738Z,7.97
2018-10-21T22:09:11.871Z,7.78
2018-10-21T22:11:40.588Z,7.52
2018-10-21T22:14:09.753Z,7.34
2018-10-21T22:16:38.387Z,7.31
2018-10-21T22:19:07.324Z,7.39
2018-10-21T22:21:36.386Z,7.47
2018-10-21T22:24:05.082Z,7.55
2018-10-21T22:26:33.482Z,7.63
2018-10-21T22:29:01.776Z,7.69
2018-10-21T22:31:30.132Z,7.66
2018-10-21T22:33:58.666Z,7.61
2018-10-21T22:36:27.186Z,7.42
2018-10-21T22:38:56.198Z,7.24
2018-10-21T22:41:24.784Z,7.21
2018-10-21T22:43:53.525Z,7.29
2018-10-21T22:46:21.823Z,7.34
2018-10-21T22:48:50.535Z,7.28
2018-10-21T22:51:18.939Z,7.33
2018-10-21T22:53:47.198Z,7.27
2018-10-21T22:56:15.985Z,7.29
2018-10-21T22:58:44.250Z,7.27
2018-10-21T23:01:12.631Z,7.20
2018-10-21T23:03:41.056Z,7.26
2018-10-21T23:06:09.432Z,7.22
2018-10-21T23:08:37.625Z,7.04
2018-10-21T23:11:06.139Z,6.96
2018-10-21T23:13:34.513Z,6.98
2018-10-21T23:16:02.939Z,7.01
2018-10-21T23:18:31.371Z,6.96
2018-10-21T23:21:00.330Z,6.78
2018-10-21T23:23:28.711Z,6.65
2018-10-21T23:25:57.014Z,6.60
2018-10-21T23:28:25.402Z,6.54
2018-10-21T23:30:53.773Z,6.53
2018-10-21T23:33:22.576Z,6.52
2018-10-21T23:35:50.929Z,6.46
2018-10-21T23:38:19.212Z,6.35
2018-10-21T23:40:47.520Z,6.32
2018-10-21T23:43:15.868Z,6.30
2018-10-21T23:45:44.277Z,6.27
2018-10-21T23:48:12.679Z,6.29
2018-10-21T23:50:40.984Z,6.19
2018-10-21T23:53:09.274Z,6.24
2018-10-21T23:55:37.952Z,6.31
2018-10-21T23:58:07.482Z,6.29
